Time;durP1;ratioP1;P1;durP2;ratioP2;P2;SDS_P1;SDS_P2;PMS_P1;PMS_P2;Temp;Humidity;BMP_temperature;BMP_pressure;BME280_temperature;BME280_humidity;BME280_pressure;Samples;Min_cycle;Max_cycle;Signal;HPM_P1;HPM_P2
2022/06/08 00:01:00;;;;;;;2.72;0.98;;;;;;;11.16;61.72;95915.91;10340267;28;96710;-68
2022/06/08 00:06:04;;;;;;;1.90;1.00;;;;;;;11.08;62.15;95913.25;10337291;28;96861;-68
2022/06/08 00:11:07;;;;;;;3.65;1.00;;;;;;;11.01;62.54;95907.03;10340226;28;98072;-68
2022/06/08 00:16:12;;;;;;;4.43;0.98;;;;;;;10.93;63.02;95900.81;10343531;28;96932;-68
2022/06/08 00:21:15;;;;;;;;;;;;;;;10.79;62.84;95904.00;10339910;28;96720;-68
2022/06/08 00:26:19;;;;;;;2.63;1.20;;;;;;;10.70;62.89;95889.28;10338282;28;96748;-68
2022/06/08 00:31:23;;;;;;;1.90;1.00;;;;;;;10.82;63.18;95895.84;10339696;28;96825;-68
2022/06/08 00:36:26;;;;;;;5.83;1.20;;;;;;;10.92;62.51;95888.72;10338957;28;96874;-68
2022/06/08 00:41:43;;;;;;;4.07;1.02;;;;;;;10.95;62.08;95880.56;10336529;28;96976;-70
2022/06/08 00:46:48;;;;;;;3.75;1.10;;;;;;;10.83;62.33;95874.00;10342235;28;97182;-68
2022/06/08 00:51:50;;;;;;;;;;;;;;;10.66;62.26;95867.88;10338726;28;97031;-67
2022/06/08 00:56:59;;;;;;;1.92;0.80;;;;;;;10.54;63.78;95871.75;10336286;28;96727;-68
2022/06/08 01:02:04;;;;;;;2.10;0.80;;;;;;;10.54;64.35;95872.56;10339624;28;99893;-68
2022/06/08 01:07:07;;;;;;;4.30;1.10;;;;;;;10.49;64.86;95866.16;10338161;28;98788;-68
2022/06/08 01:12:13;;;;;;;2.17;0.80;;;;;;;10.33;66.26;95862.50;10335551;28;97725;-68
2022/06/08 01:17:20;;;;;;;4.18;1.10;;;;;;;10.17;67.26;95852.78;10337727;28;96677;-70
2022/06/08 01:22:24;;;;;;;4.35;1.20;;;;;;;10.01;67.69;95848.31;10346189;28;99865;-68
2022/06/08 01:27:38;;;;;;;2.63;1.10;;;;;;;9.99;67.70;95846.81;10342334;28;97063;-68
2022/06/08 01:33:03;;;;;;;2.10;1.08;;;;;;;9.97;67.28;95833.09;10341683;28;96762;-67
2022/06/08 01:38:14;;;;;;;2.78;0.93;;;;;;;10.08;65.94;95832.84;10340482;28;97615;-68
2022/06/08 01:43:29;;;;;;;2.70;0.80;;;;;;;10.12;65.17;95828.94;10343554;28;98211;-67
2022/06/08 01:48:51;;;;;;;3.65;1.00;;;;;;;10.10;65.20;95819.66;10345392;28;97148;-67
2022/06/08 01:54:04;;;;;;;1.67;0.90;;;;;;;10.08;66.04;95806.75;10329324;28;96739;-67
2022/06/08 01:59:17;;;;;;;4.15;1.10;;;;;;;9.77;67.31;95809.03;10356098;28;96995;-67
2022/06/08 02:04:28;;;;;;;4.30;1.35;;;;;;;9.39;68.45;95798.75;10341827;28;97295;-67
2022/06/08 02:09:37;;;;;;;3.22;1.40;;;;;;;9.25;69.33;95794.09;10345250;28;97710;-67
2022/06/08 02:14:46;;;;;;;4.35;1.20;;;;;;;9.35;68.75;95789.63;10340326;28;96736;-67
2022/06/08 02:19:55;;;;;;;3.20;1.20;;;;;;;9.51;67.82;95773.31;10342037;28;99739;-67
2022/06/08 02:25:08;;;;;;;1.02;0.70;;;;;;;9.60;67.96;95776.78;10342933;28;96739;-67
2022/06/08 02:30:15;;;;;;;2.08;0.80;;;;;;;9.66;67.60;95770.94;10341170;28;96867;-67
2022/06/08 02:35:22;;;;;;;2.75;1.00;;;;;;;9.76;66.91;95771.66;10341016;28;97044;-68
2022/06/08 02:40:30;;;;;;;2.33;0.90;;;;;;;9.84;67.04;95768.28;10344895;28;96985;-69
2022/06/08 02:45:38;;;;;;;3.15;1.20;;;;;;;10.10;65.93;95763.03;10342715;28;96802;-67
2022/06/08 02:50:50;;;;;;;2.33;0.95;;;;;;;10.07;66.39;95762.53;10339138;28;96782;-67
2022/06/08 02:56:04;;;;;;;2.70;1.02;;;;;;;9.98;66.84;95764.28;10336409;28;96832;-67
2022/06/08 03:01:13;;;;;;;4.13;1.60;;;;;;;9.80;67.43;95761.72;10342278;28;97206;-67
2022/06/08 03:06:20;;;;;;;4.88;1.17;;;;;;;9.89;66.47;95759.97;10338688;28;96670;-67
2022/06/08 03:11:26;;;;;;;2.20;1.08;;;;;;;9.96;66.98;95761.03;10323876;28;96971;-69
2022/06/08 03:16:31;;;;;;;3.97;1.27;;;;;;;9.98;66.88;95769.50;10342246;28;97960;-67
2022/06/08 03:21:34;;;;;;;2.15;0.88;;;;;;;9.88;67.07;95774.81;10346468;28;96702;-67
2022/06/08 03:26:42;;;;;;;3.30;1.08;;;;;;;9.83;67.97;95762.25;10338129;28;96775;-67
2022/06/08 03:31:44;;;;;;;4.35;1.02;;;;;;;9.90;67.58;95751.19;10343844;28;97575;-67
2022/06/08 03:36:48;;;;;;;3.22;1.23;;;;;;;9.92;67.84;95749.25;10341667;28;97091;-67
2022/06/08 03:41:52;;;;;;;3.83;1.10;;;;;;;9.77;68.89;95747.22;10335329;28;96916;-67
2022/06/08 03:47:01;;;;;;;5.22;1.00;;;;;;;9.68;68.68;95748.16;10342080;28;96734;-67
2022/06/08 03:52:11;;;;;;;2.58;0.90;;;;;;;9.72;67.41;95744.25;10340292;28;96972;-67
2022/06/08 03:57:16;;;;;;;1.83;0.88;;;;;;;9.71;67.59;95737.38;10339946;28;97016;-67
2022/06/08 04:02:20;;;;;;;5.15;1.33;;;;;;;9.67;67.43;95741.28;10338187;28;96701;-68
2022/06/08 04:07:23;;;;;;;3.33;1.30;;;;;;;9.65;68.31;95746.66;10340631;28;96757;-68
2022/06/08 04:12:27;;;;;;;2.95;1.02;;;;;;;9.54;69.20;95757.38;10339660;28;96810;-68
2022/06/08 04:17:30;;;;;;;2.40;1.20;;;;;;;9.33;69.16;95764.66;10337271;28;96898;-68
2022/06/08 04:22:33;;;;;;;3.28;1.40;;;;;;;9.35;69.58;95763.56;10340243;28;96780;-67
2022/06/08 04:27:37;;;;;;;6.55;1.38;;;;;;;9.52;69.21;95755.88;10339090;28;96655;-67
2022/06/08 04:32:41;;;;;;;4.38;1.13;;;;;;;9.66;68.61;95730.06;10335267;28;96733;-67
2022/06/08 04:37:44;;;;;;;2.78;1.33;;;;;;;9.66;70.03;95726.59;10341031;28;96963;-67
2022/06/08 04:42:48;;;;;;;2.53;1.33;;;;;;;9.71;69.59;95745.22;10339156;28;98159;-67
2022/06/08 04:47:51;;;;;;;2.43;1.20;;;;;;;9.88;68.85;95733.09;10334466;28;97039;-67
2022/06/08 04:52:54;;;;;;;2.75;1.10;;;;;;;10.15;68.74;95726.00;10343858;28;96690;-67
2022/06/08 04:57:58;;;;;;;2.92;0.95;;;;;;;10.38;68.30;95729.69;10346200;28;96713;-67
2022/06/08 05:03:01;;;;;;;3.00;1.30;;;;;;;10.59;67.60;95724.03;10342850;28;96784;-67
2022/06/08 05:08:06;;;;;;;3.72;1.30;;;;;;;10.87;67.42;95723.72;10342571;28;99830;-67
2022/06/08 05:13:11;;;;;;;4.18;1.30;;;;;;;11.08;67.75;95723.25;10346321;28;99769;-68
2022/06/08 05:18:16;;;;;;;3.55;1.67;;;;;;;11.11;68.00;95724.72;10344344;28;96713;-67
2022/06/08 05:23:23;;;;;;;4.55;1.80;;;;;;;11.23;68.42;95720.81;10343330;28;96687;-67
2022/06/08 05:28:28;;;;;;;5.63;1.45;;;;;;;11.35;68.20;95716.91;10346778;28;97054;-67
2022/06/08 05:33:31;;;;;;;4.72;1.42;;;;;;;11.48;67.72;95710.34;10341952;28;96945;-69
2022/06/08 05:38:34;;;;;;;4.00;1.85;;;;;;;11.68;67.23;95709.00;10340232;28;96770;-67
2022/06/08 05:43:38;;;;;;;3.78;1.40;;;;;;;11.82;66.53;95706.69;10346360;28;96742;-68
2022/06/08 05:48:42;;;;;;;2.17;1.30;;;;;;;11.87;65.40;95707.78;10340323;28;96893;-67
2022/06/08 05:53:45;;;;;;;4.43;1.20;;;;;;;11.98;65.38;95711.84;10340168;28;100034;-67
2022/06/08 05:58:50;;;;;;;3.25;1.35;;;;;;;12.02;65.13;95697.41;10338410;28;99720;-67
2022/06/08 06:03:53;;;;;;;3.77;1.10;;;;;;;12.05;64.74;95691.84;10342961;28;98685;-67
2022/06/08 06:08:57;;;;;;;2.53;0.95;;;;;;;12.20;64.51;95689.34;10339825;28;97106;-67
2022/06/08 06:14:01;;;;;;;4.45;1.20;;;;;;;12.44;63.53;95696.25;10344930;28;96680;-67
2022/06/08 06:19:04;;;;;;;1.92;1.10;;;;;;;12.70;63.79;95700.38;10342434;28;97506;-67
2022/06/08 06:24:07;;;;;;;3.80;1.20;;;;;;;12.98;63.36;95689.38;10343845;28;96966;-67
2022/06/08 06:29:19;;;;;;;2.45;1.08;;;;;;;13.28;62.59;95699.94;10342251;28;96694;-65
2022/06/08 06:34:25;;;;;;;5.50;1.40;;;;;;;13.58;62.55;95693.72;10343441;28;96967;-67
2022/06/08 06:39:28;;;;;;;5.32;1.27;;;;;;;13.86;61.52;95693.09;10342600;28;96930;-67
2022/06/08 06:44:32;;;;;;;4.00;1.33;;;;;;;14.26;60.98;95683.13;10339226;28;96894;-68
2022/06/08 06:49:35;;;;;;;3.87;1.30;;;;;;;14.68;59.71;95678.97;10345609;28;97528;-69
2022/06/08 06:54:38;;;;;;;3.60;1.38;;;;;;;15.15;58.92;95668.84;10342575;28;96707;-68
2022/06/08 06:59:43;;;;;;;7.30;1.50;;;;;;;15.64;57.74;95660.09;10337630;28;102208;-68
2022/06/08 07:04:47;;;;;;;2.30;1.00;;;;;;;16.09;56.67;95651.03;10344496;28;97529;-69
2022/06/08 07:09:50;;;;;;;2.47;1.10;;;;;;;16.31;56.16;95646.41;10340985;28;97165;-68
2022/06/08 07:14:55;;;;;;;4.43;1.30;;;;;;;16.28;55.95;95649.47;10336451;28;96761;-69
2022/06/08 07:19:57;;;;;;;3.43;0.93;;;;;;;16.24;55.96;95660.41;10343788;28;96795;-67
2022/06/08 07:25:01;;;;;;;7.18;1.40;;;;;;;16.38;55.52;95652.53;10341170;28;97003;-68
2022/06/08 07:30:07;;;;;;;2.58;1.20;;;;;;;16.59;54.88;95657.66;10338389;28;96870;-69
2022/06/08 07:35:12;;;;;;;3.45;1.20;;;;;;;16.72;54.45;95664.78;10341203;28;97209;-68
2022/06/08 07:40:15;;;;;;;4.37;1.33;;;;;;;16.65;54.05;95652.59;10340840;28;96721;-68
2022/06/08 07:45:19;;;;;;;1.67;0.77;;;;;;;16.71;54.40;95654.44;10340678;28;98762;-68
2022/06/08 07:50:23;;;;;;;5.55;1.20;;;;;;;16.71;54.30;95651.78;10323695;28;96931;-68
2022/06/08 07:55:26;;;;;;;3.75;1.10;;;;;;;16.76;54.06;95644.13;10340784;28;96853;-68
2022/06/08 08:00:31;;;;;;;3.40;1.35;;;;;;;16.92;53.25;95630.56;10339195;28;96972;-68
2022/06/08 08:05:34;;;;;;;2.53;1.08;;;;;;;17.23;52.67;95629.16;10337698;28;99520;-70
2022/06/08 08:10:37;;;;;;;2.00;1.00;;;;;;;17.57;51.98;95625.41;10342055;28;96772;-68
2022/06/08 08:15:43;;;;;;;2.83;1.05;;;;;;;18.06;50.62;95623.25;10338811;28;97036;-68
2022/06/08 08:20:47;;;;;;;3.95;1.00;;;;;;;18.39;50.65;95622.28;10335728;28;96934;-68
2022/06/08 08:25:51;;;;;;;2.55;1.20;;;;;;;18.53;49.90;95627.53;10333939;28;97799;-68
2022/06/08 08:30:55;;;;;;;3.00;1.00;;;;;;;18.77;48.98;95621.47;10336942;28;99731;-68
2022/06/08 08:36:06;;;;;;;1.40;1.00;;;;;;;18.92;48.23;95615.91;10337419;28;99286;-68
2022/06/08 08:46:43;;;;;;;2.83;0.80;;;;;;;19.01;47.63;95614.59;10335895;28;96858;-68
2022/06/08 08:51:52;;;;;;;1.73;0.70;;;;;;;19.12;47.13;95620.22;10338150;28;96900;-69
2022/06/08 08:57:00;;;;;;;3.35;0.80;;;;;;;19.25;47.18;95610.31;10334880;28;96991;-70
2022/06/08 09:02:15;;;;;;;3.70;1.00;;;;;;;19.69;46.68;95610.28;10338434;28;96954;-68
2022/06/08 09:07:21;;;;;;;3.22;1.35;;;;;;;19.88;46.81;95613.78;10339511;28;97104;-68
2022/06/08 09:12:24;;;;;;;3.13;1.42;;;;;;;19.96;46.81;95629.41;10333897;28;96875;-69
2022/06/08 09:17:34;;;;;;;;;;;;;;;19.98;46.98;95622.03;10336684;28;100154;-68
2022/06/08 09:22:38;;;;;;;3.28;1.33;;;;;;;20.06;46.81;95609.50;10339673;28;96773;-68
2022/06/08 09:27:49;;;;;;;2.60;0.75;;;;;;;20.10;46.44;95613.34;10338432;28;96849;-68
2022/06/08 09:32:57;;;;;;;3.22;0.90;;;;;;;20.13;45.78;95610.22;10334281;28;96739;-68
2022/06/08 09:38:03;;;;;;;2.60;0.90;;;;;;;20.04;45.56;95606.28;10339015;28;96671;-68
2022/06/08 09:43:23;;;;;;;3.22;0.85;;;;;;;19.93;46.18;95621.88;10345740;28;96944;-69
2022/06/08 09:54:15;;;;;;;1.60;0.80;;;;;;;19.96;45.84;95625.94;10342861;28;97021;-68
2022/06/08 09:59:45;;;;;;;2.95;0.73;;;;;;;19.76;46.14;95626.94;10342861;28;96738;-69
2022/06/08 10:05:01;;;;;;;3.30;0.90;;;;;;;19.71;46.85;95636.56;10347403;28;97007;-68
2022/06/08 10:10:23;;;;;;;4.38;0.95;;;;;;;19.53;48.34;95645.31;10343718;28;97170;-68
2022/06/08 10:15:34;;;;;;;2.72;1.10;;;;;;;19.53;49.12;95647.97;10343122;28;100005;-69
2022/06/08 10:20:40;;;;;;;3.42;1.23;;;;;;;19.35;48.91;95646.09;10340407;28;96784;-68
2022/06/08 10:25:47;;;;;;;5.43;1.52;;;;;;;19.08;50.62;95651.59;10345765;28;99910;-68
2022/06/08 10:30:57;;;;;;;3.83;1.00;;;;;;;18.91;52.18;95669.03;10342899;28;99942;-68
2022/06/08 10:36:03;;;;;;;4.20;1.25;;;;;;;18.55;52.91;95667.78;10338625;28;96794;-68
2022/06/08 10:46:51;;;;;;;5.85;1.20;;;;;;;18.44;55.06;95683.28;10337242;28;96934;-68
2022/06/08 10:52:16;;;;;;;4.40;1.20;;;;;;;18.34;55.32;95685.56;10338023;28;97132;-68
2022/06/08 10:57:42;;;;;;;3.53;1.00;;;;;;;18.37;55.09;95685.16;10342324;28;96796;-68
2022/06/08 11:02:51;;;;;;;2.55;0.98;;;;;;;18.38;55.51;95689.44;10325772;28;96861;-69
2022/06/08 11:08:17;;;;;;;5.15;1.65;;;;;;;18.30;55.50;95692.31;10337225;28;96793;-68
2022/06/08 11:13:30;;;;;;;3.28;1.00;;;;;;;18.39;56.55;95706.13;10342519;28;97106;-68
2022/06/08 11:18:42;;;;;;;3.58;1.52;;;;;;;18.24;56.71;95701.09;10341302;28;97037;-68
2022/06/08 11:23:49;;;;;;;4.38;1.20;;;;;;;18.09;56.47;95703.97;10336589;28;97045;-69
2022/06/08 11:28:58;;;;;;;2.97;1.10;;;;;;;17.78;57.29;95715.19;10335561;28;96922;-68
2022/06/08 11:34:16;;;;;;;3.42;1.45;;;;;;;17.62;56.63;95721.72;10340460;28;96693;-68
2022/06/08 11:39:27;;;;;;;3.03;1.00;;;;;;;17.37;56.08;95731.06;10340698;28;97255;-68
2022/06/08 11:44:35;;;;;;;1.98;0.93;;;;;;;17.04;58.11;95731.03;10324257;28;96962;-68
2022/06/08 11:49:40;;;;;;;3.15;1.15;;;;;;;17.12;59.45;95732.66;10342119;28;96756;-68
2022/06/08 11:54:45;;;;;;;3.42;1.42;;;;;;;17.50;60.82;95740.00;10340655;28;96934;-68
2022/06/08 11:59:49;;;;;;;5.80;1.45;;;;;;;17.61;61.22;95733.28;10335949;28;96852;-69
2022/06/08 12:04:55;;;;;;;4.88;1.27;;;;;;;17.96;61.44;95739.19;10333288;28;96928;-69
2022/06/08 12:10:10;;;;;;;3.17;1.38;;;;;;;17.46;63.30;95744.09;10340118;28;97022;-68
2022/06/08 12:15:44;;;;;;;2.90;1.30;;;;;;;17.45;63.66;95734.53;10339297;28;96779;-68
2022/06/08 12:20:47;;;;;;;3.92;1.40;;;;;;;17.71;63.18;95747.72;10232427;28;97920;-69
2022/06/08 12:25:54;;;;;;;5.47;1.45;;;;;;;18.03;61.81;95734.72;10243990;28;96962;-68
2022/06/08 12:30:59;;;;;;;3.53;1.20;;;;;;;18.41;61.43;95738.44;10246176;28;96939;-68
2022/06/08 12:36:10;;;;;;;4.30;1.38;;;;;;;18.49;60.89;95746.94;10243717;28;96939;-68
2022/06/08 12:41:16;;;;;;;1.77;1.02;;;;;;;18.05;60.08;95735.31;10246966;28;96927;-68
2022/06/08 12:46:24;;;;;;;3.10;0.93;;;;;;;17.94;59.66;95741.22;10245404;28;96860;-68
2022/06/08 12:51:40;;;;;;;2.33;0.85;;;;;;;17.75;59.61;95737.53;10243371;28;96963;-69
2022/06/08 12:56:47;;;;;;;2.92;1.10;;;;;;;17.41;60.96;95735.97;10317977;28;96932;-68
2022/06/08 13:01:50;;;;;;;4.28;1.27;;;;;;;17.62;60.35;95735.72;10333634;28;97005;-68
2022/06/08 13:06:53;;;;;;;3.00;1.17;;;;;;;17.69;61.14;95755.03;10337561;28;97004;-68
2022/06/08 13:12:00;;;;;;;7.40;1.50;;;;;;;18.06;61.04;95747.47;10334037;28;96720;-68
2022/06/08 13:17:04;;;;;;;5.15;1.42;;;;;;;18.27;59.96;95735.88;10346650;28;96898;-68
2022/06/08 13:22:07;;;;;;;4.25;1.50;;;;;;;18.66;59.67;95728.78;10345199;28;96967;-69
2022/06/08 13:27:15;;;;;;;4.05;1.10;;;;;;;18.95;58.73;95731.09;10343434;28;96924;-68
2022/06/08 13:32:21;;;;;;;2.10;0.85;;;;;;;18.59;59.55;95728.00;10344220;28;96788;-68
2022/06/08 13:37:34;;;;;;;3.97;1.17;;;;;;;18.41;59.71;95731.34;10345640;28;98591;-69
2022/06/08 13:42:39;;;;;;;2.75;1.20;;;;;;;18.35;59.12;95737.47;10345040;28;96699;-68
2022/06/08 13:47:45;;;;;;;2.30;1.08;;;;;;;18.28;59.02;95731.38;10340940;28;96814;-69
2022/06/08 13:52:48;;;;;;;3.47;1.25;;;;;;;18.09;59.02;95733.84;10347571;28;96972;-69
2022/06/08 13:58:02;;;;;;;2.75;0.90;;;;;;;17.66;59.42;95751.97;10342881;28;96807;-68
2022/06/08 14:03:08;;;;;;;3.72;1.08;;;;;;;17.74;60.52;95747.31;10341206;28;96894;-68
2022/06/08 14:13:35;;;;;;;1.63;1.02;;;;;;;17.72;62.15;95745.91;10342296;28;96754;-68
2022/06/08 14:18:42;;;;;;;1.45;1.10;;;;;;;17.18;65.51;95758.28;10343191;28;96989;-68
2022/06/08 14:23:48;;;;;;;2.78;1.05;;;;;;;16.73;66.36;95752.66;10340777;28;96847;-69
2022/06/08 14:28:56;;;;;;;2.33;1.08;;;;;;;16.65;66.39;95744.91;10338193;28;97035;-68
2022/06/08 14:34:00;;;;;;;2.53;1.17;;;;;;;16.79;66.73;95743.97;10343105;28;97023;-68
2022/06/08 14:39:04;;;;;;;1.83;0.87;;;;;;;17.16;66.51;95728.59;10342412;28;99858;-68
2022/06/08 14:44:11;;;;;;;1.65;0.90;;;;;;;17.90;63.99;95730.25;10343180;28;97822;-68
2022/06/08 14:49:23;;;;;;;3.45;1.27;;;;;;;18.48;63.00;95721.53;10344565;28;97054;-68
2022/06/08 14:54:28;;;;;;;2.47;1.20;;;;;;;18.58;62.32;95729.00;10341762;28;97549;-69
2022/06/08 14:59:36;;;;;;;3.63;1.25;;;;;;;18.87;60.87;95722.38;10339663;28;96897;-71
2022/06/08 15:04:39;;;;;;;3.28;1.23;;;;;;;19.14;60.98;95729.34;10344340;28;96882;-68
2022/06/08 15:09:42;;;;;;;2.90;0.90;;;;;;;19.65;60.61;95716.97;10341695;28;96682;-69
2022/06/08 15:14:50;;;;;;;3.03;1.10;;;;;;;20.49;59.13;95714.66;10337358;28;96861;-68
2022/06/08 15:19:57;;;;;;;2.60;0.80;;;;;;;22.19;54.95;95704.50;10336086;28;96901;-68
2022/06/08 15:25:00;;;;;;;1.27;0.63;;;;;;;23.88;52.80;95696.09;10341284;28;97142;-69
2022/06/08 15:30:12;;;;;;;4.85;1.10;;;;;;;25.15;48.85;95684.53;10338421;28;96716;-69
2022/06/08 15:35:18;;;;;;;1.80;0.82;;;;;;;25.81;46.82;95694.19;10340707;28;99721;-69
2022/06/08 15:40:24;;;;;;;1.30;0.70;;;;;;;26.83;45.02;95687.69;10341704;28;96766;-69
2022/06/08 15:45:30;;;;;;;1.70;0.70;;;;;;;27.33;41.74;95677.34;10339949;28;96891;-70
2022/06/08 15:50:47;;;;;;;1.60;0.68;;;;;;;27.98;40.30;95681.06;10337844;28;96726;-69
2022/06/08 15:55:57;;;;;;;1.27;0.57;;;;;;;28.40;39.90;95669.13;10335539;28;97250;-69
2022/06/08 16:01:01;;;;;;;1.70;0.50;;;;;;;27.26;40.70;95675.72;10340496;28;96705;-69
2022/06/08 16:06:05;;;;;;;1.10;0.68;;;;;;;26.39;42.50;95672.03;10337602;28;96870;-69
2022/06/08 16:11:08;;;;;;;1.83;0.60;;;;;;;25.92;42.53;95677.09;10338906;28;98076;-71
2022/06/08 16:16:12;;;;;;;1.35;0.75;;;;;;;24.29;45.45;95669.16;10339928;28;97398;-69
2022/06/08 16:21:15;;;;;;;1.38;0.60;;;;;;;23.35;45.80;95660.91;10336758;28;96904;-69
2022/06/08 16:26:19;;;;;;;1.40;0.70;;;;;;;22.69;46.95;95665.88;10337955;28;96699;-69
2022/06/08 16:31:23;;;;;;;2.00;0.80;;;;;;;21.81;49.65;95671.25;10338541;28;96993;-69
2022/06/08 16:36:26;;;;;;;3.33;0.88;;;;;;;21.11;50.62;95691.41;10338325;28;96901;-70
2022/06/08 16:41:29;;;;;;;1.55;0.70;;;;;;;20.46;52.37;95705.34;10336556;28;96952;-69
2022/06/08 16:46:34;;;;;;;3.15;1.00;;;;;;;19.80;54.36;95712.09;10339330;28;96890;-69
2022/06/08 16:51:37;;;;;;;4.35;1.10;;;;;;;19.45;57.11;95707.31;10337765;28;96708;-69
2022/06/08 17:02:02;;;;;;;5.53;1.30;;;;;;;18.62;60.76;95726.75;10334111;28;96771;-68
2022/06/08 17:07:06;;;;;;;4.50;1.45;;;;;;;18.18;63.12;95720.44;10336618;28;96977;-67
2022/06/08 17:12:11;;;;;;;4.13;1.33;;;;;;;17.89;64.40;95714.59;10333009;28;98167;-69
2022/06/08 17:17:19;;;;;;;2.85;1.05;;;;;;;17.69;64.51;95711.97;10336985;28;96886;-68
2022/06/08 17:22:23;;;;;;;2.40;1.40;;;;;;;17.51;65.35;95715.25;10331390;28;96804;-68
2022/06/08 17:27:25;;;;;;;2.63;1.00;;;;;;;17.46;65.26;95700.00;10332714;28;97058;-69
2022/06/08 17:32:30;;;;;;;5.78;1.42;;;;;;;17.53;66.68;95697.34;10319215;28;96901;-68
2022/06/08 17:37:33;;;;;;;2.80;1.33;;;;;;;17.80;67.71;95682.25;10339059;28;96925;-68
2022/06/08 17:42:36;;;;;;;2.23;1.57;;;;;;;20.09;65.14;95683.31;10328364;28;96847;-68
2022/06/08 17:47:40;;;;;;;5.97;2.28;;;;;;;21.79;61.37;95685.84;10333728;28;96744;-69
2022/06/08 17:52:43;;;;;;;;;;;;;;;21.45;61.58;95690.88;10334255;28;96978;-69
2022/06/08 17:57:47;;;;;;;7.95;4.40;;;;;;;20.38;62.87;95732.16;10324091;28;100072;-68
2022/06/08 18:02:51;;;;;;;3.97;1.30;;;;;;;19.41;64.34;95724.69;10338990;28;96977;-69
2022/06/08 18:07:54;;;;;;;;;;;;;;;18.91;64.20;95735.19;10338711;28;98497;-69
2022/06/08 18:12:57;;;;;;;3.00;1.20;;;;;;;18.42;66.60;95719.72;10337839;28;97311;-70
2022/06/08 18:18:01;;;;;;;2.83;1.05;;;;;;;17.83;66.72;95720.69;10335128;28;98221;-69
2022/06/08 18:23:05;;;;;;;1.20;0.88;;;;;;;17.34;67.85;95720.09;10341349;28;96890;-68
2022/06/08 18:28:13;;;;;;;1.53;0.80;;;;;;;17.04;68.83;95714.38;10334886;28;96941;-69
2022/06/08 18:33:19;;;;;;;1.55;0.75;;;;;;;16.88;68.95;95726.13;10337088;28;98480;-68
2022/06/08 18:38:23;;;;;;;2.35;0.93;;;;;;;16.79;68.93;95726.31;10337821;28;96841;-68
2022/06/08 18:43:30;;;;;;;1.88;1.00;;;;;;;16.78;68.82;95723.88;10333526;28;97800;-69
2022/06/08 18:48:36;;;;;;;1.48;0.73;;;;;;;16.70;68.70;95718.75;10340424;28;97046;-69
2022/06/08 18:53:40;;;;;;;3.33;1.23;;;;;;;16.60;68.64;95717.28;10334920;28;96786;-68
2022/06/08 18:58:44;;;;;;;0.68;0.60;;;;;;;16.59;69.58;95715.69;10344754;28;97307;-69
2022/06/08 19:03:48;;;;;;;1.73;0.75;;;;;;;16.51;69.77;95715.84;10346809;28;98787;-68
2022/06/08 19:08:52;;;;;;;;;;;;;;;16.39;68.90;95738.53;10338970;28;97116;-69
2022/06/08 19:13:56;;;;;;;2.13;0.98;;;;;;;16.22;70.25;95738.88;10344282;28;97177;-68
2022/06/08 19:24:20;;;;;;;1.90;0.90;;;;;;;15.96;71.08;95759.78;10340852;28;96866;-68
2022/06/08 19:29:23;;;;;;;1.42;0.80;;;;;;;15.65;71.64;95759.16;10332640;28;96679;-68
2022/06/08 19:34:27;;;;;;;1.67;0.85;;;;;;;15.47;72.16;95767.47;10341199;28;97710;-68
2022/06/08 19:39:31;;;;;;;2.15;0.80;;;;;;;15.31;72.23;95783.56;10340354;28;97061;-68
2022/06/08 19:44:34;;;;;;;0.98;0.63;;;;;;;15.22;72.68;95788.13;10338105;28;96883;-68
2022/06/08 19:49:38;;;;;;;1.77;0.93;;;;;;;15.18;72.91;95799.19;10340870;28;97051;-69
2022/06/08 19:54:41;;;;;;;1.53;0.70;;;;;;;15.18;72.91;95793.94;10340354;28;97219;-68
2022/06/08 19:59:44;;;;;;;1.83;0.88;;;;;;;15.22;72.79;95797.84;10336276;28;96792;-68
2022/06/08 20:04:49;;;;;;;1.77;0.70;;;;;;;15.19;73.07;95806.09;10338982;28;98323;-69
2022/06/08 20:09:52;;;;;;;2.13;0.88;;;;;;;15.07;72.91;95825.00;10339782;28;97090;-68
2022/06/08 20:14:55;;;;;;;1.90;1.00;;;;;;;14.97;74.30;95829.75;10336621;28;97133;-68
2022/06/08 20:19:59;;;;;;;2.60;0.77;;;;;;;14.72;75.25;95814.28;10341901;28;97403;-68
2022/06/08 20:25:02;;;;;;;3.22;1.08;;;;;;;14.62;75.78;95820.84;10338813;28;96778;-68
2022/06/08 20:30:06;;;;;;;1.80;1.10;;;;;;;14.57;75.66;95829.25;10338755;28;99949;-68
2022/06/08 20:35:14;;;;;;;3.13;1.05;;;;;;;14.47;76.44;95829.56;10337736;28;97133;-68
2022/06/08 20:40:16;;;;;;;4.22;1.45;;;;;;;14.44;76.06;95834.34;10338158;28;96746;-70
2022/06/08 20:45:19;;;;;;;3.03;1.45;;;;;;;14.49;76.82;95851.22;10333951;28;99854;-69
2022/06/08 20:50:26;;;;;;;2.35;1.30;;;;;;;14.45;76.80;95843.84;10336450;28;97185;-67
2022/06/08 20:55:30;;;;;;;2.38;1.30;;;;;;;14.50;77.24;95849.38;10340549;28;96766;-69
2022/06/08 21:00:35;;;;;;;1.20;1.10;;;;;;;14.50;76.81;95862.53;10334894;28;97977;-68
2022/06/08 21:05:42;;;;;;;2.92;1.42;;;;;;;14.46;76.84;95863.91;10336762;28;96729;-68
2022/06/08 21:10:45;;;;;;;1.25;1.10;;;;;;;14.40;77.48;95854.91;10341324;28;99934;-70
2022/06/08 21:15:48;;;;;;;2.55;1.50;;;;;;;14.42;77.13;95873.13;10336267;28;96916;-68
2022/06/08 21:20:53;;;;;;;3.45;1.80;;;;;;;14.29;77.70;95881.59;10331198;28;96938;-68
2022/06/08 21:25:59;;;;;;;3.25;1.13;;;;;;;14.22;77.91;95878.88;10334426;28;96805;-68
2022/06/08 21:31:03;;;;;;;2.08;1.30;;;;;;;14.27;77.21;95880.97;10337960;28;96921;-68
2022/06/08 21:36:08;;;;;;;3.63;0.97;;;;;;;14.25;77.22;95857.50;10339592;28;96874;-68
2022/06/08 21:41:12;;;;;;;;;;;;;;;14.24;77.16;95881.31;10344886;28;96940;-68
2022/06/08 21:46:15;;;;;;;3.13;1.15;;;;;;;14.21;77.28;95882.53;10346562;28;96795;-68
2022/06/08 21:51:19;;;;;;;2.15;1.10;;;;;;;14.18;77.84;95882.88;10342420;28;96745;-68
2022/06/08 21:56:22;;;;;;;5.05;2.10;;;;;;;14.11;77.58;95881.97;10342497;28;96768;-68
2022/06/08 22:01:25;;;;;;;3.17;1.10;;;;;;;14.06;78.54;95900.88;10344205;28;96929;-67
2022/06/08 22:06:30;;;;;;;2.35;1.40;;;;;;;14.06;78.74;95900.06;10343505;28;96901;-68
2022/06/08 22:11:33;;;;;;;3.10;1.00;;;;;;;14.07;77.93;95901.69;10341376;28;96949;-68
2022/06/08 22:16:36;;;;;;;2.65;0.75;;;;;;;14.04;77.71;95902.84;10344182;28;96796;-70
2022/06/08 22:21:41;;;;;;;1.65;0.70;;;;;;;13.95;78.08;95907.38;10342350;28;97324;-68
2022/06/08 22:26:44;;;;;;;2.75;0.93;;;;;;;13.88;78.37;95903.81;10339512;28;97185;-67
2022/06/08 22:31:47;;;;;;;1.50;0.63;;;;;;;13.87;77.73;95860.16;10345035;28;97333;-70
2022/06/08 22:36:52;;;;;;;1.42;0.77;;;;;;;13.83;76.50;95874.66;10342478;28;96914;-71
2022/06/08 22:41:55;;;;;;;2.42;0.70;;;;;;;13.72;76.42;95882.94;10338710;28;96943;-68
2022/06/08 22:46:58;;;;;;;1.42;0.90;;;;;;;13.50;76.60;95888.00;10344475;28;96707;-68
2022/06/08 22:52:04;;;;;;;1.48;0.80;;;;;;;13.33;77.43;95910.09;10339242;28;96762;-67
2022/06/08 22:57:07;;;;;;;1.08;0.70;;;;;;;13.18;78.10;95896.88;10339701;28;96836;-69
2022/06/08 23:02:10;;;;;;;2.40;0.85;;;;;;;13.11;78.28;95878.41;10342403;28;98163;-68
2022/06/08 23:07:14;;;;;;;3.85;0.73;;;;;;;13.00;78.56;95871.75;10338747;28;96886;-68
2022/06/08 23:12:17;;;;;;;1.80;0.80;;;;;;;12.84;78.60;95872.59;10340314;28;97015;-68
2022/06/08 23:22:42;;;;;;;2.67;1.00;;;;;;;12.71;79.80;95874.13;10342879;28;96832;-67
2022/06/08 23:27:45;;;;;;;5.60;0.80;;;;;;;12.76;80.02;95872.63;10340736;28;102176;-67
2022/06/08 23:32:47;;;;;;;4.57;1.30;;;;;;;12.78;79.49;95881.13;10336803;28;96847;-68
2022/06/08 23:37:52;;;;;;;4.90;1.20;;;;;;;12.84;79.73;95859.50;10344247;28;97055;-68
2022/06/08 23:42:55;;;;;;;4.60;1.48;;;;;;;12.87;79.25;95877.53;10340490;28;96885;-68
2022/06/08 23:48:18;;;;;;;4.40;1.05;;;;;;;12.82;79.47;95882.44;10340557;28;96948;-68
2022/06/08 23:53:22;;;;;;;3.55;1.25;;;;;;;12.79;79.54;95877.53;10340030;28;96742;-69
2022/06/08 23:58:25;;;;;;;3.90;1.00;;;;;;;12.88;79.48;95866.03;10338791;28;101615;-68
